createdAt,value
2019-03-04T00:00:49.640Z,0.70
2019-03-04T00:03:16.701Z,0.63
2019-03-04T00:05:43.780Z,0.61
2019-03-04T00:08:10.839Z,0.57
2019-03-04T00:10:37.899Z,0.56
2019-03-04T00:13:04.965Z,0.55
2019-03-04T00:15:32.024Z,0.52
2019-03-04T00:17:59.192Z,0.51
2019-03-04T00:20:26.265Z,0.51
2019-03-04T00:22:53.340Z,0.51
2019-03-04T00:25:20.402Z,0.50
2019-03-04T00:27:47.462Z,0.51
2019-03-04T00:30:14.531Z,0.50
2019-03-04T00:32:41.583Z,0.52
2019-03-04T00:35:08.667Z,0.53
2019-03-04T00:37:35.769Z,0.54
2019-03-04T00:40:03.285Z,0.54
2019-03-04T00:42:30.360Z,0.55
2019-03-04T00:44:57.416Z,0.56
2019-03-04T00:47:24.462Z,0.56
2019-03-04T00:49:51.534Z,0.52
2019-03-04T00:52:18.605Z,0.53
2019-03-04T00:54:45.667Z,0.52
2019-03-04T00:57:12.732Z,0.52
2019-03-04T00:59:39.791Z,0.50
2019-03-04T01:02:06.875Z,0.49
2019-03-04T01:04:33.933Z,0.51
2019-03-04T01:07:01.003Z,0.53
2019-03-04T01:09:28.055Z,0.54
2019-03-04T01:11:55.129Z,0.57
2019-03-04T01:14:22.182Z,0.57
2019-03-04T01:16:49.241Z,0.57
2019-03-04T01:19:17.994Z,0.57
2019-03-04T01:21:45.067Z,0.58
2019-03-04T01:24:12.138Z,0.56
2019-03-04T01:26:39.249Z,0.55
2019-03-04T01:29:06.318Z,0.55
2019-03-04T01:31:33.384Z,0.55
2019-03-04T01:34:00.439Z,0.55
2019-03-04T01:36:27.504Z,0.53
2019-03-04T01:38:54.595Z,0.52
2019-03-04T01:41:21.655Z,0.52
2019-03-04T01:43:48.722Z,0.51
2019-03-04T01:46:16.965Z,0.52
2019-03-04T01:48:44.113Z,0.50
2019-03-04T01:51:11.128Z,0.52
2019-03-04T01:53:38.195Z,0.52
2019-03-04T01:56:05.268Z,0.52
2019-03-04T01:58:32.331Z,0.52
2019-03-04T02:00:59.388Z,0.53
2019-03-04T02:03:26.454Z,0.54
2019-03-04T02:05:53.516Z,0.55
2019-03-04T02:08:20.579Z,0.55
2019-03-04T02:10:47.626Z,0.54
2019-03-04T02:13:14.696Z,0.52
2019-03-04T02:15:41.760Z,0.53
2019-03-04T02:18:08.824Z,0.53
2019-03-04T02:20:35.991Z,0.55
2019-03-04T02:23:03.053Z,0.52
2019-03-04T02:26:23.383Z,0.53
2019-03-04T02:28:50.458Z,0.55
2019-03-04T02:31:17.523Z,0.54
2019-03-04T02:33:44.605Z,0.51
2019-03-04T02:36:11.769Z,0.49
2019-03-04T02:38:38.874Z,0.50
2019-03-04T02:41:05.941Z,0.52
2019-03-04T02:43:33.004Z,0.55
2019-03-04T02:46:00.088Z,0.55
2019-03-04T02:48:27.138Z,0.57
2019-03-04T02:50:54.210Z,0.58
2019-03-04T02:53:21.289Z,0.58
2019-03-04T02:55:48.371Z,0.58
2019-03-04T02:58:15.446Z,0.59
2019-03-04T03:00:42.707Z,0.59
2019-03-04T03:03:09.872Z,0.60
2019-03-04T03:05:36.960Z,0.60
2019-03-04T03:08:04.033Z,0.63
2019-03-04T03:10:31.093Z,0.66
2019-03-04T03:12:58.167Z,0.68
2019-03-04T03:15:25.543Z,0.67
2019-03-04T03:17:52.609Z,0.69
2019-03-04T03:20:19.668Z,0.70
2019-03-04T03:22:46.727Z,0.69
2019-03-04T03:25:13.916Z,0.68
2019-03-04T03:27:41.026Z,0.69
2019-03-04T03:30:09.374Z,0.69
2019-03-04T03:32:36.441Z,0.73
2019-03-04T03:35:08.111Z,0.72
2019-03-04T03:37:33.052Z,0.73
2019-03-04T03:40:00.250Z,0.74
2019-03-04T03:42:27.276Z,0.74
2019-03-04T03:44:54.355Z,0.75
2019-03-04T03:47:21.407Z,0.76
2019-03-04T03:49:48.464Z,0.76
2019-03-04T03:52:15.544Z,0.77
2019-03-04T03:54:42.629Z,0.78
2019-03-04T03:57:09.740Z,0.77
2019-03-04T03:59:36.802Z,0.77
2019-03-04T04:02:03.974Z,0.76
2019-03-04T04:04:31.041Z,0.78
2019-03-04T04:06:58.115Z,0.78
2019-03-04T04:09:25.171Z,0.78
2019-03-04T04:11:52.248Z,0.77
2019-03-04T04:14:19.309Z,0.76
2019-03-04T04:16:46.381Z,0.76
2019-03-04T04:19:13.453Z,0.77
2019-03-04T04:21:40.524Z,0.78
2019-03-04T04:24:07.597Z,0.78
2019-03-04T04:26:34.648Z,0.77
2019-03-04T04:29:09.877Z,0.78
2019-03-04T04:31:37.024Z,0.78
2019-03-04T04:34:04.080Z,0.80
2019-03-04T04:36:39.244Z,0.76
2019-03-04T04:39:12.607Z,0.76
2019-03-04T04:41:43.205Z,0.74
2019-03-04T04:44:27.022Z,0.75
2019-03-04T04:46:55.308Z,0.77
2019-03-04T04:49:32.520Z,0.77
2019-03-04T04:51:59.580Z,0.77
2019-03-04T04:54:26.634Z,0.77
2019-03-04T04:56:53.704Z,0.77
2019-03-04T04:59:20.780Z,0.76
2019-03-04T05:01:47.838Z,0.75
2019-03-04T05:04:14.928Z,0.75
2019-03-04T05:06:42.048Z,0.73
2019-03-04T05:09:09.120Z,0.70
2019-03-04T05:11:36.222Z,0.70
2019-03-04T05:14:03.296Z,0.69
2019-03-04T05:16:30.353Z,0.67
2019-03-04T05:18:57.412Z,0.68
2019-03-04T05:21:24.470Z,0.67
2019-03-04T05:23:51.537Z,0.66
2019-03-04T05:26:19.500Z,0.66
2019-03-04T05:28:46.574Z,0.67
2019-03-04T05:31:13.683Z,0.68
2019-03-04T05:33:40.776Z,0.68
2019-03-04T05:36:07.882Z,0.68
2019-03-04T05:38:34.976Z,0.68
2019-03-04T05:41:02.036Z,0.72
2019-03-04T05:43:29.107Z,0.73
2019-03-04T05:45:56.174Z,0.75
2019-03-04T05:48:23.238Z,0.77
2019-03-04T05:50:50.310Z,0.78
2019-03-04T05:53:17.386Z,0.81
2019-03-04T05:55:44.455Z,0.84
2019-03-04T05:58:11.517Z,0.86
2019-03-04T06:00:40.590Z,0.88
2019-03-04T06:03:08.330Z,0.89
2019-03-04T06:05:35.406Z,0.90
2019-03-04T06:08:03.855Z,0.93
2019-03-04T06:10:30.920Z,0.94
2019-03-04T06:12:58.953Z,0.93
2019-03-04T06:15:26.230Z,0.94
2019-03-04T06:17:53.288Z,0.94
2019-03-04T06:20:20.397Z,0.94
2019-03-04T06:22:47.523Z,0.95
2019-03-04T06:25:19.952Z,0.95
2019-03-04T06:27:47.017Z,0.95
2019-03-04T06:30:19.050Z,0.95
2019-03-04T06:32:46.223Z,0.96
2019-03-04T06:35:13.374Z,0.98
2019-03-04T06:37:40.434Z,1.01
2019-03-04T06:40:09.110Z,1.04
2019-03-04T06:42:36.163Z,1.03
2019-03-04T06:45:04.430Z,1.05
2019-03-04T06:47:31.507Z,1.06
2019-03-04T06:49:58.551Z,1.09
2019-03-04T06:52:25.849Z,1.09
2019-03-04T06:55:21.386Z,1.09
2019-03-04T06:57:50.184Z,1.11
2019-03-04T07:01:14.299Z,1.12
2019-03-04T07:03:53.098Z,1.13
2019-03-04T07:06:20.160Z,1.17
2019-03-04T07:09:08.643Z,1.18
2019-03-04T07:11:36.605Z,1.19
2019-03-04T07:14:04.344Z,1.18
2019-03-04T07:16:32.262Z,1.18
2019-03-04T07:18:59.437Z,1.23
2019-03-04T07:21:26.507Z,1.24
2019-03-04T07:23:53.560Z,1.28
2019-03-04T07:26:20.616Z,1.29
2019-03-04T07:28:47.673Z,1.29
2019-03-04T07:31:14.722Z,1.30
2019-03-04T07:33:41.823Z,1.31
2019-03-04T07:36:08.892Z,1.33
2019-03-04T07:38:49.807Z,1.36
2019-03-04T07:41:16.868Z,1.37
2019-03-04T07:43:43.955Z,1.39
2019-03-04T07:46:11.101Z,1.39
2019-03-04T07:48:38.155Z,1.38
2019-03-04T07:51:10.746Z,1.37
2019-03-04T07:53:46.095Z,1.37
2019-03-04T07:56:06.800Z,1.40
2019-03-04T07:58:33.880Z,1.39
2019-03-04T08:01:00.935Z,1.37
2019-03-04T08:03:28.007Z,1.36
2019-03-04T08:05:55.075Z,1.37
2019-03-04T08:08:22.143Z,1.42
2019-03-04T08:11:25.955Z,1.47
2019-03-04T08:13:56.881Z,1.52
2019-03-04T08:16:23.974Z,1.53
2019-03-04T08:18:51.061Z,1.54
2019-03-04T08:21:18.124Z,1.54
2019-03-04T08:23:45.198Z,1.56
2019-03-04T08:26:12.647Z,1.59
2019-03-04T08:28:39.821Z,1.60
2019-03-04T08:31:07.495Z,1.60
2019-03-04T08:33:34.568Z,1.63
2019-03-04T08:36:01.622Z,1.65
2019-03-04T08:38:28.674Z,1.65
2019-03-04T08:40:55.733Z,1.65
2019-03-04T08:43:22.804Z,1.64
2019-03-04T08:45:49.971Z,1.63
2019-03-04T08:48:17.043Z,1.63
2019-03-04T08:50:44.185Z,1.61
2019-03-04T08:53:11.235Z,1.61
2019-03-04T08:55:38.287Z,1.60
2019-03-04T08:58:05.345Z,1.63
2019-03-04T09:00:33.111Z,1.66
2019-03-04T09:03:00.790Z,1.70
2019-03-04T09:05:27.855Z,1.71
2019-03-04T09:07:54.920Z,1.65
2019-03-04T09:10:24.131Z,1.60
2019-03-04T09:12:51.340Z,1.57
2019-03-04T09:15:18.501Z,1.61
2019-03-04T09:17:45.612Z,1.66
2019-03-04T09:20:13.099Z,1.68
2019-03-04T09:22:40.171Z,1.66
2019-03-04T09:25:10.777Z,1.69
2019-03-04T09:27:37.834Z,1.73
2019-03-04T09:30:06.340Z,1.77
2019-03-04T09:32:33.412Z,1.81
2019-03-04T09:35:00.478Z,1.83
2019-03-04T09:37:27.561Z,1.85
2019-03-04T09:39:54.624Z,1.88
2019-03-04T09:42:23.399Z,1.88
2019-03-04T09:44:50.491Z,1.87
2019-03-04T09:47:17.595Z,1.86
2019-03-04T09:49:44.717Z,1.86
2019-03-04T09:52:11.772Z,1.89
2019-03-04T09:54:38.840Z,1.95
2019-03-04T09:57:06.495Z,1.95
2019-03-04T09:59:33.553Z,1.96
2019-03-04T10:02:03.841Z,1.99
2019-03-04T10:05:00.044Z,2.03
2019-03-04T10:07:59.128Z,2.08
2019-03-04T10:11:07.933Z,2.13
2019-03-04T10:14:29.052Z,2.14
2019-03-04T10:17:35.895Z,2.08
2019-03-04T10:20:26.529Z,2.07
2019-03-04T10:23:18.297Z,2.06
2019-03-04T10:26:31.146Z,2.07
2019-03-04T10:29:16.153Z,2.06
2019-03-04T10:32:43.083Z,2.09
2019-03-04T10:35:38.152Z,2.14
2019-03-04T10:38:30.686Z,2.19
2019-03-04T10:41:19.828Z,2.17
2019-03-04T10:44:37.973Z,2.19
2019-03-04T10:47:05.304Z,2.13
2019-03-04T10:49:34.534Z,2.09
2019-03-04T10:52:01.604Z,2.07
2019-03-04T10:54:28.665Z,2.05
2019-03-04T10:56:55.747Z,2.05
2019-03-04T10:59:22.806Z,2.07
2019-03-04T11:01:50.221Z,2.14
2019-03-04T11:04:17.467Z,2.17
2019-03-04T11:06:44.531Z,2.21
2019-03-04T11:09:11.584Z,2.27
2019-03-04T11:11:39.051Z,2.32
2019-03-04T11:14:06.149Z,2.33
2019-03-04T11:16:33.210Z,2.33
2019-03-04T11:19:00.308Z,2.34
2019-03-04T11:21:27.370Z,2.38
2019-03-04T11:23:54.634Z,2.43
2019-03-04T11:26:21.739Z,2.44
2019-03-04T11:28:48.787Z,2.41
2019-03-04T11:31:15.901Z,2.43
2019-03-04T11:33:42.977Z,2.45
2019-03-04T11:36:10.048Z,2.48
2019-03-04T11:38:42.605Z,2.51
2019-03-04T11:41:11.871Z,2.56
2019-03-04T11:43:38.937Z,2.61
2019-03-04T11:46:05.999Z,2.61
2019-03-04T11:48:33.055Z,2.64
2019-03-04T11:51:00.121Z,2.64
2019-03-04T11:53:27.202Z,2.64
2019-03-04T11:55:54.277Z,2.65
2019-03-04T11:58:21.342Z,2.65
2019-03-04T12:00:59.770Z,2.64
2019-03-04T12:03:29.768Z,2.62
2019-03-04T12:05:56.838Z,2.56
2019-03-04T12:08:23.901Z,2.54
2019-03-04T12:10:51.044Z,2.54
2019-03-04T12:13:18.107Z,2.58
2019-03-04T12:15:45.190Z,2.57
2019-03-04T12:18:14.751Z,2.56
2019-03-04T12:20:44.356Z,2.58
2019-03-04T12:23:11.432Z,2.52
2019-03-04T12:25:38.535Z,2.51
2019-03-04T12:28:05.595Z,2.50
2019-03-04T12:30:32.682Z,2.47
2019-03-04T12:32:59.787Z,2.46
2019-03-04T12:35:26.862Z,2.46
2019-03-04T12:37:53.922Z,2.46
2019-03-04T12:40:21.438Z,2.48
2019-03-04T12:42:48.499Z,2.49
2019-03-04T12:45:15.779Z,2.49
2019-03-04T12:47:42.917Z,2.48
2019-03-04T12:50:15.737Z,2.48
2019-03-04T12:52:42.891Z,2.49
2019-03-04T12:55:10.132Z,2.49
2019-03-04T12:57:37.200Z,2.45
2019-03-04T13:00:06.428Z,2.43
2019-03-04T13:02:33.512Z,2.38
2019-03-04T13:05:01.671Z,2.36
2019-03-04T13:07:29.039Z,2.35
2019-03-04T13:09:56.099Z,2.36
2019-03-04T13:12:23.165Z,2.39
2019-03-04T13:14:50.244Z,2.42
2019-03-04T13:17:17.314Z,2.41
2019-03-04T13:19:44.367Z,2.44
2019-03-04T13:22:11.439Z,2.44
2019-03-04T13:24:38.504Z,2.43
2019-03-04T13:27:05.584Z,2.42
2019-03-04T13:29:32.660Z,2.41
2019-03-04T13:31:59.757Z,2.38
2019-03-04T13:34:26.846Z,2.34
2019-03-04T13:36:53.910Z,2.31
2019-03-04T13:39:20.988Z,2.28
2019-03-04T13:41:48.065Z,2.29
2019-03-04T13:44:15.129Z,2.29
2019-03-04T13:46:42.213Z,2.27
2019-03-04T13:49:09.296Z,2.25
2019-03-04T13:51:36.383Z,2.24
2019-03-04T13:54:03.586Z,2.26
2019-03-04T13:56:30.687Z,2.24
2019-03-04T13:58:57.777Z,2.25
2019-03-04T14:01:25.015Z,2.23
2019-03-04T14:03:52.106Z,2.23
2019-03-04T14:06:19.266Z,2.21
2019-03-04T14:08:46.300Z,2.18
2019-03-04T14:11:13.778Z,2.18
2019-03-04T14:13:40.985Z,2.14
2019-03-04T14:16:08.834Z,2.13
2019-03-04T14:18:36.190Z,2.14
2019-03-04T14:21:03.696Z,2.13
2019-03-04T14:23:32.246Z,2.13
2019-03-04T14:25:59.473Z,2.12
2019-03-04T14:28:28.386Z,2.14
2019-03-04T14:30:56.796Z,2.15
2019-03-04T14:33:24.232Z,2.15
2019-03-04T14:35:51.548Z,2.18
2019-03-04T14:38:18.751Z,2.18
2019-03-04T14:40:46.995Z,2.09
2019-03-04T14:43:14.477Z,2.13
2019-03-04T14:45:41.687Z,2.14
2019-03-04T14:48:08.864Z,2.13
2019-03-04T14:50:38.645Z,2.13
2019-03-04T14:53:05.876Z,2.12
2019-03-04T14:55:33.116Z,2.09
2019-03-04T14:58:02.000Z,2.09
2019-03-04T15:00:35.097Z,2.09
2019-03-04T15:03:02.347Z,2.08
2019-03-04T15:05:29.429Z,2.08
2019-03-04T15:07:56.521Z,2.07
2019-03-04T15:10:23.667Z,2.06
2019-03-04T15:12:50.767Z,2.03
2019-03-04T15:15:17.971Z,2.02
2019-03-04T15:17:45.052Z,2.00
2019-03-04T15:20:15.832Z,1.99
2019-03-04T15:22:42.904Z,1.99
2019-03-04T15:25:11.569Z,1.99
2019-03-04T15:27:38.626Z,1.97
2019-03-04T15:30:07.320Z,1.97
2019-03-04T15:32:34.400Z,1.96
2019-03-04T15:35:01.525Z,1.95
2019-03-04T15:37:28.612Z,1.95
2019-03-04T15:39:55.676Z,1.93
2019-03-04T15:42:22.777Z,1.92
2019-03-04T15:44:50.056Z,1.90
2019-03-04T15:47:17.110Z,1.92
2019-03-04T15:49:44.197Z,1.89
2019-03-04T15:52:11.364Z,1.87
2019-03-04T15:54:38.431Z,1.86
2019-03-04T15:57:07.024Z,1.86
2019-03-04T15:59:34.184Z,1.86
2019-03-04T16:02:12.465Z,1.85
2019-03-04T16:04:39.543Z,1.86
2019-03-04T16:07:08.558Z,1.85
2019-03-04T16:09:35.661Z,1.85
2019-03-04T16:12:02.800Z,1.85
2019-03-04T16:14:30.369Z,1.85
2019-03-04T16:16:57.435Z,1.85
2019-03-04T16:19:24.529Z,1.87
2019-03-04T16:21:51.608Z,1.87
2019-03-04T16:24:18.664Z,1.85
2019-03-04T16:26:45.775Z,1.84
2019-03-04T16:29:12.875Z,1.82
2019-03-04T16:31:39.947Z,1.82
2019-03-04T16:34:07.040Z,1.82
2019-03-04T16:36:34.164Z,1.81
2019-03-04T16:39:01.337Z,1.81
2019-03-04T16:41:28.380Z,1.79
2019-03-04T16:43:55.485Z,1.78
2019-03-04T16:46:22.559Z,1.78
2019-03-04T16:48:49.895Z,1.77
2019-03-04T16:51:17.006Z,1.74
2019-03-04T16:53:44.145Z,1.73
2019-03-04T16:56:11.415Z,1.70
2019-03-04T16:58:38.493Z,1.70
2019-03-04T17:01:05.555Z,1.71
2019-03-04T17:03:32.640Z,1.70
2019-03-04T17:05:59.703Z,1.68
2019-03-04T17:08:26.770Z,1.68
2019-03-04T17:10:53.830Z,1.66
2019-03-04T17:13:21.052Z,1.67
2019-03-04T17:15:48.126Z,1.68
2019-03-04T17:18:17.369Z,1.66
2019-03-04T17:20:44.255Z,1.66
2019-03-04T17:23:11.367Z,1.66
2019-03-04T17:25:38.550Z,1.66
2019-03-04T17:28:05.657Z,1.66
2019-03-04T17:30:33.067Z,1.64
2019-03-04T17:33:00.164Z,1.64
2019-03-04T17:35:27.339Z,1.66
2019-03-04T17:37:54.418Z,1.65
2019-03-04T17:40:21.773Z,1.65
2019-03-04T17:42:48.985Z,1.65
2019-03-04T17:45:16.374Z,1.64
2019-03-04T17:47:43.464Z,1.65
2019-03-04T17:50:12.742Z,1.64
2019-03-04T17:52:40.032Z,1.65
2019-03-04T17:55:08.629Z,1.66
2019-03-04T17:57:35.705Z,1.67
2019-03-04T18:00:03.331Z,1.68
2019-03-04T18:02:30.658Z,1.67
2019-03-04T18:04:57.732Z,1.68
2019-03-04T18:07:26.861Z,1.68
2019-03-04T18:09:54.018Z,1.68
2019-03-04T18:12:21.236Z,1.68
2019-03-04T18:14:48.643Z,1.68
2019-03-04T18:17:15.774Z,1.68
2019-03-04T18:19:42.831Z,1.66
2019-03-04T18:22:09.913Z,1.64
2019-03-04T18:24:37.475Z,1.63
2019-03-04T18:27:08.546Z,1.62
2019-03-04T18:30:11.472Z,1.62
2019-03-04T18:33:21.761Z,1.61
2019-03-04T18:36:13.683Z,1.58
2019-03-04T18:39:09.184Z,1.56
2019-03-04T18:42:24.421Z,1.57
2019-03-04T18:45:42.251Z,1.55
2019-03-04T18:48:41.191Z,1.54
2019-03-04T18:51:08.311Z,1.57
2019-03-04T18:53:35.388Z,1.57
2019-03-04T18:56:02.501Z,1.59
2019-03-04T18:58:29.578Z,1.59
2019-03-04T19:00:56.778Z,1.58
2019-03-04T19:03:23.895Z,1.58
2019-03-04T19:05:51.013Z,1.59
2019-03-04T19:08:18.084Z,1.59
2019-03-04T19:10:45.161Z,1.61
2019-03-04T19:13:12.320Z,1.60
2019-03-04T19:15:39.464Z,1.62
2019-03-04T19:18:06.576Z,1.64
2019-03-04T19:20:33.634Z,1.65
2019-03-04T19:23:00.789Z,1.66
2019-03-04T19:25:27.865Z,1.66
2019-03-04T19:27:55.191Z,1.66
2019-03-04T19:30:22.245Z,1.63
2019-03-04T19:32:49.359Z,1.63
2019-03-04T19:35:16.481Z,1.61
2019-03-04T19:37:44.094Z,1.61
2019-03-04T19:40:11.441Z,1.62
2019-03-04T19:42:38.541Z,1.61
2019-03-04T19:45:08.047Z,1.61
2019-03-04T19:47:35.176Z,1.63
2019-03-04T19:50:04.572Z,1.64
2019-03-04T19:52:31.662Z,1.63
2019-03-04T19:54:58.943Z,1.63
2019-03-04T19:57:26.247Z,1.63
2019-03-04T19:59:53.392Z,1.63
2019-03-04T20:02:20.468Z,1.62
2019-03-04T20:04:47.663Z,1.63
2019-03-04T20:07:14.963Z,1.62
2019-03-04T20:09:42.306Z,1.64
2019-03-04T20:12:09.593Z,1.63
2019-03-04T20:14:36.667Z,1.63
2019-03-04T20:17:03.855Z,1.65
2019-03-04T20:19:30.953Z,1.65
2019-03-04T20:21:58.040Z,1.64
2019-03-04T20:24:25.212Z,1.65
2019-03-04T20:26:52.365Z,1.65
2019-03-04T20:29:19.459Z,1.63
2019-03-04T20:31:46.820Z,1.62
2019-03-04T20:34:13.871Z,1.61
2019-03-04T20:36:40.952Z,1.60
2019-03-04T20:39:09.666Z,1.61
2019-03-04T20:41:37.729Z,1.61
2019-03-04T20:44:05.097Z,1.60
2019-03-04T20:46:32.156Z,1.59
2019-03-04T20:48:59.230Z,1.60
2019-03-04T20:51:26.297Z,1.62
2019-03-04T20:53:53.361Z,1.61
2019-03-04T20:56:20.437Z,1.61
2019-03-04T20:58:47.524Z,1.58
2019-03-04T21:01:15.474Z,1.57
2019-03-04T21:03:42.638Z,1.55
2019-03-04T21:06:09.866Z,1.55
2019-03-04T21:08:37.171Z,1.53
2019-03-04T21:11:04.270Z,1.50
2019-03-04T21:13:35.940Z,1.52
2019-03-04T21:16:00.432Z,1.51
2019-03-04T21:18:27.719Z,1.49
2019-03-04T21:20:57.810Z,1.50
2019-03-04T21:23:25.182Z,1.49
2019-03-04T21:26:01.527Z,1.49
2019-03-04T21:28:56.580Z,1.48
2019-03-04T21:32:07.520Z,1.45
2019-03-04T21:35:15.274Z,1.45
2019-03-04T21:37:44.729Z,1.41
2019-03-04T21:40:29.352Z,1.36
2019-03-04T21:43:04.204Z,1.35
2019-03-04T21:46:09.368Z,1.36
2019-03-04T21:48:40.801Z,1.36
2019-03-04T21:51:41.667Z,1.31
2019-03-04T21:54:09.001Z,1.28
2019-03-04T21:56:42.781Z,1.29
2019-03-04T21:59:09.962Z,1.29
2019-03-04T22:01:44.281Z,1.30
2019-03-04T22:04:11.696Z,1.30
2019-03-04T22:06:38.878Z,1.32
2019-03-04T22:09:07.115Z,1.31
2019-03-04T22:11:34.206Z,1.31
2019-03-04T22:14:01.277Z,1.31
2019-03-04T22:16:30.979Z,1.31
2019-03-04T22:18:57.768Z,1.30
2019-03-04T22:21:24.845Z,1.30
2019-03-04T22:23:51.952Z,1.32
2019-03-04T22:26:21.966Z,1.32
2019-03-04T22:28:49.135Z,1.31
2019-03-04T22:31:16.480Z,1.31
2019-03-04T22:33:43.728Z,1.31
2019-03-04T22:36:10.786Z,1.32
2019-03-04T22:38:37.838Z,1.33
2019-03-04T22:41:09.735Z,1.29
2019-03-04T22:43:36.940Z,1.30
2019-03-04T22:46:04.178Z,1.28
2019-03-04T22:48:31.363Z,1.27
2019-03-04T22:50:58.476Z,1.26
2019-03-04T22:53:25.775Z,1.23
2019-03-04T22:55:52.904Z,1.22
2019-03-04T22:58:28.118Z,1.22
2019-03-04T23:01:23.359Z,1.23
2019-03-04T23:03:50.674Z,1.24
2019-03-04T23:06:21.349Z,1.27
2019-03-04T23:08:48.439Z,1.25
2019-03-04T23:11:15.787Z,1.21
2019-03-04T23:13:49.585Z,1.22
2019-03-04T23:16:22.928Z,1.20
2019-03-04T23:18:49.992Z,1.17
2019-03-04T23:21:17.072Z,1.13
2019-03-04T23:23:44.154Z,1.08
2019-03-04T23:26:11.232Z,1.08
2019-03-04T23:28:38.354Z,1.08
2019-03-04T23:31:05.423Z,1.06
2019-03-04T23:33:32.515Z,1.03
2019-03-04T23:35:59.583Z,1.01
2019-03-04T23:38:26.661Z,0.98
2019-03-04T23:40:53.727Z,0.97
2019-03-04T23:43:21.248Z,0.97
2019-03-04T23:45:48.376Z,0.94
2019-03-04T23:48:15.463Z,0.94
2019-03-04T23:50:42.528Z,0.93
2019-03-04T23:53:09.597Z,0.94
2019-03-04T23:55:36.673Z,0.91
2019-03-04T23:58:03.768Z,0.89
